createdAt,value
2022-12-26T00:01:06.116Z,96442.19
2022-12-26T00:03:33.994Z,96457.59
2022-12-26T00:06:03.212Z,96486.66
2022-12-26T00:08:31.065Z,96505.50
2022-12-26T00:10:58.980Z,96498.44
2022-12-26T00:13:38.570Z,96505.19
2022-12-26T00:16:10.422Z,96525.50
2022-12-26T00:18:38.699Z,96524.19
2022-12-26T00:21:08.254Z,96512.88
2022-12-26T00:23:37.114Z,96521.41
2022-12-26T00:26:06.267Z,96495.84
2022-12-26T00:28:34.415Z,96493.28
2022-12-26T00:31:05.492Z,96525.97
2022-12-26T00:33:34.256Z,96548.78
2022-12-26T00:36:03.563Z,96524.19
2022-12-26T00:38:32.857Z,96510.41
2022-12-26T00:41:01.587Z,96539.44
2022-12-26T00:43:29.432Z,96546.16
2022-12-26T00:45:57.883Z,96544.38
2022-12-26T00:48:25.797Z,96541.75
2022-12-26T00:50:53.785Z,96578.63
2022-12-26T00:53:21.765Z,96567.31
2022-12-26T00:55:51.394Z,96576.72
2022-12-26T00:58:19.269Z,96565.84
2022-12-26T01:00:47.148Z,96581.94
2022-12-26T01:03:16.018Z,96599.00
2022-12-26T01:05:44.834Z,96582.88
2022-12-26T01:08:20.165Z,96594.75
2022-12-26T01:10:53.574Z,96594.06
2022-12-26T01:13:21.384Z,96597.34
2022-12-26T01:15:50.675Z,96588.81
2022-12-26T01:18:18.761Z,96599.00
2022-12-26T01:20:46.807Z,96602.59
2022-12-26T01:23:14.755Z,96601.63
2022-12-26T01:26:17.014Z,96592.13
2022-12-26T01:28:31.741Z,96552.22
2022-12-26T01:31:02.994Z,96542.72
2022-12-26T01:33:31.107Z,96547.81
2022-12-26T01:35:59.207Z,96571.59
2022-12-26T01:38:27.544Z,96603.41
2022-12-26T01:41:15.584Z,96578.63
2022-12-26T01:43:51.376Z,96557.47
2022-12-26T01:46:22.933Z,96546.31
2022-12-26T01:48:52.484Z,96566.81
2022-12-26T01:51:22.942Z,96570.09
2022-12-26T01:53:53.850Z,96603.56
2022-12-26T01:56:24.902Z,96617.03
2022-12-26T01:58:57.349Z,96628.84
2022-12-26T02:01:30.359Z,96619.50
2022-12-26T02:04:18.370Z,96610.16
2022-12-26T02:06:46.252Z,96622.94
2022-12-26T02:09:14.583Z,96619.66
2022-12-26T02:11:45.831Z,96636.41
2022-12-26T02:14:16.149Z,96668.88
2022-12-26T02:16:44.422Z,96667.91
2022-12-26T02:19:27.199Z,96695.47
2022-12-26T02:22:21.352Z,96693.81
2022-12-26T02:25:11.590Z,96696.13
2022-12-26T02:27:58.255Z,96698.09
2022-12-26T02:30:37.642Z,96713.38
2022-12-26T02:33:34.309Z,96728.66
2022-12-26T02:36:22.891Z,96703.06
2022-12-26T02:39:42.619Z,96713.38
2022-12-26T02:42:01.034Z,96690.53
2022-12-26T02:44:56.933Z,96725.38
2022-12-26T02:47:34.663Z,96728.66
2022-12-26T02:50:27.528Z,96683.28
2022-12-26T02:53:23.289Z,96704.97
2022-12-26T02:56:12.016Z,96720.13
2022-12-26T02:59:01.885Z,96735.41
2022-12-26T03:02:07.724Z,96738.00
2022-12-26T03:04:57.706Z,96727.97
2022-12-26T03:07:47.245Z,96712.56
2022-12-26T03:10:37.270Z,96740.63
2022-12-26T03:13:14.498Z,96721.25
2022-12-26T03:16:04.195Z,96725.38
2022-12-26T03:18:57.731Z,96741.63
2022-12-26T03:21:27.535Z,96744.09
2022-12-26T03:23:57.806Z,96751.78
2022-12-26T03:26:39.943Z,96711.59
2022-12-26T03:29:27.925Z,96716.81
2022-12-26T03:31:55.907Z,96718.47
2022-12-26T03:34:24.192Z,96716.81
2022-12-26T03:37:23.490Z,96695.47
2022-12-26T03:40:22.979Z,96728.13
2022-12-26T03:43:16.873Z,96733.91
2022-12-26T03:46:09.608Z,96707.59
2022-12-26T03:49:03.888Z,96719.44
2022-12-26T03:51:53.968Z,96713.66
2022-12-26T03:54:45.838Z,96701.69
2022-12-26T03:57:31.752Z,96693.00
2022-12-26T04:00:23.562Z,96712.56
2022-12-26T04:03:12.629Z,96689.19
2022-12-26T04:06:04.136Z,96705.78
2022-12-26T04:08:55.814Z,96713.38
2022-12-26T04:11:42.541Z,96720.44
2022-12-26T04:14:40.276Z,96729.78
2022-12-26T04:17:33.483Z,96747.69
2022-12-26T04:20:10.020Z,96722.06
2022-12-26T04:23:05.238Z,96740.78
2022-12-26T04:25:56.216Z,96745.06
2022-12-26T04:28:43.072Z,96761.16
2022-12-26T04:31:33.380Z,96767.66
2022-12-26T04:34:21.775Z,96779.19
2022-12-26T04:37:14.407Z,96779.88
2022-12-26T04:40:04.796Z,96781.66
2022-12-26T04:42:52.325Z,96780.84
2022-12-26T04:45:22.711Z,96773.28
2022-12-26T04:48:05.711Z,96760.63
2022-12-26T04:50:33.499Z,96749.31
2022-12-26T04:53:01.442Z,96771.63
2022-12-26T04:55:30.892Z,96763.94
2022-12-26T04:57:59.311Z,96768.03
2022-12-26T05:00:29.661Z,96771.63
2022-12-26T05:03:18.970Z,96787.06
2022-12-26T05:06:08.333Z,96768.03
2022-12-26T05:08:56.708Z,96766.53
2022-12-26T05:11:25.254Z,96757.84
2022-12-26T05:13:54.129Z,96764.06
2022-12-26T05:16:41.573Z,96778.38
2022-12-26T05:19:30.307Z,96791.19
2022-12-26T05:22:18.777Z,96778.22
2022-12-26T05:25:04.596Z,96792.84
2022-12-26T05:27:55.600Z,96783.47
2022-12-26T05:30:24.208Z,96766.69
2022-12-26T05:33:11.453Z,96763.78
2022-12-26T05:35:40.214Z,96779.19
2022-12-26T05:38:10.979Z,96787.75
2022-12-26T05:40:38.834Z,96776.59
2022-12-26T05:43:06.749Z,96793.81
2022-12-26T05:45:34.459Z,96793.81
2022-12-26T05:48:03.932Z,96800.84
2022-12-26T05:50:31.854Z,96798.22
2022-12-26T05:53:00.650Z,96797.25
2022-12-26T05:55:28.503Z,96824.50
2022-12-26T05:57:56.673Z,96817.63
2022-12-26T06:00:24.404Z,96800.84
2022-12-26T06:02:52.335Z,96820.25
2022-12-26T06:05:21.570Z,96827.84
2022-12-26T06:07:49.404Z,96808.25
2022-12-26T06:10:17.350Z,96800.03
2022-12-26T06:12:47.542Z,96829.50
2022-12-26T06:15:15.362Z,96816.13
2022-12-26T06:17:43.150Z,96836.38
2022-12-26T06:20:11.481Z,96822.88
2022-12-26T06:22:40.671Z,96853.75
2022-12-26T06:25:09.834Z,96848.53
2022-12-26T06:27:37.638Z,96836.38
2022-12-26T06:30:06.277Z,96845.22
2022-12-26T06:32:34.893Z,96857.88
2022-12-26T06:35:03.148Z,96843.28
2022-12-26T06:37:31.460Z,96833.09
2022-12-26T06:40:00.706Z,96834.75
2022-12-26T06:42:29.477Z,96856.25
2022-12-26T06:44:57.241Z,96860.50
2022-12-26T06:47:25.103Z,96847.69
2022-12-26T06:49:52.878Z,96862.16
2022-12-26T06:52:20.704Z,96841.78
2022-12-26T06:54:48.453Z,96848.38
2022-12-26T06:57:17.669Z,96862.31
2022-12-26T06:59:45.476Z,96882.69
2022-12-26T07:02:13.513Z,96879.09
2022-12-26T07:04:41.415Z,96894.69
2022-12-26T07:07:09.203Z,96882.69
2022-12-26T07:09:37.063Z,96920.16
2022-12-26T07:12:05.186Z,96919.19
2022-12-26T07:14:35.636Z,96909.97
2022-12-26T07:17:03.361Z,96912.44
2022-12-26T07:19:31.101Z,96922.78
2022-12-26T07:21:59.191Z,96935.59
2022-12-26T07:24:26.956Z,96954.38
2022-12-26T07:26:54.797Z,96944.97
2022-12-26T07:29:22.946Z,96961.84
2022-12-26T07:31:52.132Z,96939.88
2022-12-26T07:34:19.889Z,96959.47
2022-12-26T07:36:47.802Z,96960.97
2022-12-26T07:39:15.576Z,96974.75
2022-12-26T07:41:59.717Z,96976.03
2022-12-26T07:44:28.932Z,97012.56
2022-12-26T07:46:58.482Z,96991.84
2022-12-26T07:49:27.111Z,96967.19
2022-12-26T07:51:54.887Z,96966.50
2022-12-26T07:54:23.023Z,97002.06
2022-12-26T07:56:51.000Z,97007.31
2022-12-26T07:59:19.127Z,97024.41
2022-12-26T08:01:47.076Z,97013.38
2022-12-26T08:04:16.327Z,97032.28
2022-12-26T08:06:44.138Z,97038.19
2022-12-26T08:09:15.924Z,97033.78
2022-12-26T08:11:44.184Z,97009.78
2022-12-26T08:14:13.307Z,96993.50
2022-12-26T08:16:41.310Z,97033.94
2022-12-26T08:19:09.162Z,97028.00
2022-12-26T08:21:38.513Z,97058.59
2022-12-26T08:24:06.627Z,97050.06
2022-12-26T08:26:34.491Z,97081.00
2022-12-26T08:29:02.523Z,97063.84
2022-12-26T08:31:31.912Z,97040.44
2022-12-26T08:33:59.784Z,97091.19
2022-12-26T08:36:27.576Z,97088.56
2022-12-26T08:38:57.218Z,97104.84
2022-12-26T08:41:25.084Z,97119.19
2022-12-26T08:46:41.806Z,97099.75
2022-12-26T08:49:09.588Z,97132.31
2022-12-26T08:51:37.420Z,97106.66
2022-12-26T08:54:07.244Z,97148.44
2022-12-26T08:56:34.983Z,97148.31
2022-12-26T08:59:02.748Z,97146.78
2022-12-26T09:01:32.397Z,97143.34
2022-12-26T09:04:02.732Z,97154.00
2022-12-26T09:06:33.017Z,97153.56
2022-12-26T09:09:01.579Z,97167.34
2022-12-26T09:11:31.712Z,97180.03
2022-12-26T09:14:02.778Z,97157.44
2022-12-26T09:16:37.397Z,97189.56
2022-12-26T09:19:07.211Z,97157.97
2022-12-26T09:21:34.967Z,97216.94
2022-12-26T09:24:05.694Z,97193.75
2022-12-26T09:26:35.439Z,97178.25
2022-12-26T09:29:03.836Z,97189.56
2022-12-26T09:31:33.959Z,97187.78
2022-12-26T09:34:02.836Z,97175.09
2022-12-26T09:36:32.817Z,97162.94
2022-12-26T09:39:00.975Z,97148.44
2022-12-26T09:41:54.403Z,97168.19
2022-12-26T09:44:26.923Z,97165.56
2022-12-26T09:47:04.892Z,97151.06
2022-12-26T09:49:35.752Z,97160.47
2022-12-26T09:52:10.896Z,97143.34
2022-12-26T09:54:43.862Z,97132.31
2022-12-26T09:57:19.735Z,97119.63
2022-12-26T09:59:52.921Z,97140.88
2022-12-26T10:02:23.976Z,97122.09
2022-12-26T10:04:52.560Z,97113.53
2022-12-26T10:07:29.243Z,97100.88
2022-12-26T10:10:09.125Z,97091.19
2022-12-26T10:12:50.102Z,97096.44
2022-12-26T10:15:39.292Z,97094.78
2022-12-26T10:18:18.058Z,97118.50
2022-12-26T10:20:59.709Z,97127.34
2022-12-26T10:23:33.645Z,97114.13
2022-12-26T10:26:09.215Z,97136.59
2022-12-26T10:28:42.950Z,97131.63
2022-12-26T10:31:17.623Z,97127.06
2022-12-26T10:33:51.206Z,97145.16
2022-12-26T10:36:28.036Z,97149.41
2022-12-26T10:38:59.632Z,97165.69
2022-12-26T10:41:29.522Z,97154.66
2022-12-26T10:43:58.673Z,97128.03
2022-12-26T10:46:43.809Z,97125.41
2022-12-26T10:49:13.199Z,97157.16
2022-12-26T10:51:41.187Z,97169.00
2022-12-26T10:54:15.873Z,97169.84
2022-12-26T10:56:46.447Z,97150.41
2022-12-26T10:59:19.409Z,97155.50
2022-12-26T11:01:50.665Z,97175.91
2022-12-26T11:04:44.614Z,97181.75
2022-12-26T11:07:11.990Z,97192.19
2022-12-26T11:09:42.570Z,97171.50
2022-12-26T11:12:21.759Z,97199.97
2022-12-26T11:14:58.013Z,97199.81
2022-12-26T11:17:28.968Z,97180.34
2022-12-26T11:20:25.513Z,97193.19
2022-12-26T11:22:53.912Z,97164.88
2022-12-26T11:25:24.636Z,97182.81
2022-12-26T11:27:54.307Z,97165.69
2022-12-26T11:30:30.342Z,97174.25
2022-12-26T11:33:15.166Z,97190.56
2022-12-26T11:35:55.951Z,97176.22
2022-12-26T11:38:42.457Z,97179.38
2022-12-26T11:41:36.479Z,97172.59
2022-12-26T11:44:16.791Z,97186.13
2022-12-26T11:46:49.847Z,97212.66
2022-12-26T11:49:21.454Z,97206.72
2022-12-26T11:51:55.628Z,97206.88
2022-12-26T11:54:30.770Z,97200.78
2022-12-26T11:57:20.259Z,97192.19
2022-12-26T11:59:49.035Z,97186.28
2022-12-26T12:02:23.935Z,97200.78
2022-12-26T12:04:54.748Z,97186.28
2022-12-26T12:07:43.668Z,97193.88
2022-12-26T12:10:49.464Z,97188.91
2022-12-26T12:13:27.149Z,97165.84
2022-12-26T12:16:01.136Z,97180.34
2022-12-26T12:18:46.907Z,97194.97
2022-12-26T12:21:22.206Z,97219.84
2022-12-26T12:24:28.533Z,97182.00
2022-12-26T12:27:05.140Z,97200.09
2022-12-26T12:30:04.380Z,97184.63
2022-12-26T12:32:44.921Z,97180.34
2022-12-26T12:35:27.915Z,97185.59
2022-12-26T12:38:15.324Z,97182.28
2022-12-26T12:40:51.307Z,97176.34
2022-12-26T12:43:28.351Z,97169.16
2022-12-26T12:46:05.834Z,97172.06
2022-12-26T12:48:56.802Z,97164.19
2022-12-26T12:51:34.387Z,97171.78
2022-12-26T12:54:44.674Z,97159.91
2022-12-26T12:57:21.083Z,97173.72
2022-12-26T13:00:03.175Z,97165.03
2022-12-26T13:02:36.226Z,97141.16
2022-12-26T13:05:16.056Z,97161.56
2022-12-26T13:07:49.317Z,97138.69
2022-12-26T13:10:22.129Z,97161.56
2022-12-26T13:12:51.879Z,97127.34
2022-12-26T13:15:30.929Z,97130.94
2022-12-26T13:18:03.305Z,97124.06
2022-12-26T13:20:39.285Z,97133.44
2022-12-26T13:23:36.694Z,97126.69
2022-12-26T13:26:12.303Z,97148.06
2022-12-26T13:28:53.832Z,97105.28
2022-12-26T13:31:22.327Z,97134.25
2022-12-26T13:33:50.475Z,97117.44
2022-12-26T13:36:43.832Z,97095.09
2022-12-26T13:39:34.212Z,97094.13
2022-12-26T13:42:24.167Z,97116.47
2022-12-26T13:44:53.576Z,97103.63
2022-12-26T13:47:36.328Z,97103.63
2022-12-26T13:50:41.349Z,97108.59
2022-12-26T13:53:29.526Z,97134.41
2022-12-26T13:56:00.151Z,97114.13
2022-12-26T13:58:51.041Z,97111.38
2022-12-26T14:01:31.129Z,97139.50
2022-12-26T14:04:18.636Z,97117.16
2022-12-26T14:07:02.453Z,97092.03
2022-12-26T14:09:43.369Z,97102.81
2022-12-26T14:12:35.859Z,97101.16
2022-12-26T14:15:18.590Z,97119.09
2022-12-26T14:17:59.841Z,97091.75
2022-12-26T14:20:41.773Z,97093.41
2022-12-26T14:23:24.710Z,97086.50
2022-12-26T14:26:03.385Z,97053.28
2022-12-26T14:28:51.457Z,97065.28
2022-12-26T14:31:25.847Z,97084.84
2022-12-26T14:34:00.586Z,97077.94
2022-12-26T14:36:39.891Z,97067.75
2022-12-26T14:39:20.872Z,97060.84
2022-12-26T14:42:55.630Z,97042.25
2022-12-26T14:45:43.301Z,97031.06
2022-12-26T14:48:47.794Z,97023.34
2022-12-26T14:51:34.626Z,97041.84
2022-12-26T14:54:38.558Z,97064.44
2022-12-26T14:57:52.213Z,97058.66
2022-12-26T15:00:34.493Z,97025.97
2022-12-26T15:03:42.052Z,97034.53
2022-12-26T15:06:46.392Z,97032.88
2022-12-26T15:09:42.454Z,97051.75
2022-12-26T15:12:45.374Z,97000.47
2022-12-26T15:15:35.451Z,97003.91
2022-12-26T15:18:31.042Z,97005.56
2022-12-26T15:21:29.609Z,96961.84
2022-12-26T15:24:15.480Z,96946.69
2022-12-26T15:27:08.546Z,96944.22
2022-12-26T15:29:53.581Z,96916.78
2022-12-26T15:32:26.009Z,96915.81
2022-12-26T15:35:03.828Z,96923.00
2022-12-26T15:38:13.597Z,96935.53
2022-12-26T15:40:45.585Z,96918.06
2022-12-26T15:43:45.538Z,96913.47
2022-12-26T15:46:21.496Z,96921.34
2022-12-26T15:49:16.622Z,96875.31
2022-12-26T15:51:56.291Z,96862.88
2022-12-26T15:54:56.028Z,96871.19
2022-12-26T15:57:35.157Z,96883.16
2022-12-26T16:00:13.900Z,96913.47
2022-12-26T16:02:48.992Z,96907.25
2022-12-26T16:05:48.780Z,96904.78
2022-12-26T16:08:35.644Z,96853.50
2022-12-26T16:11:21.344Z,96863.16
2022-12-26T16:13:59.418Z,96857.94
2022-12-26T16:16:34.286Z,96876.69
2022-12-26T16:19:18.831Z,96899.53
2022-12-26T16:22:08.800Z,96859.56
2022-12-26T16:24:38.393Z,96854.34
2022-12-26T16:27:09.842Z,96832.31
2022-12-26T16:29:45.949Z,96857.94
2022-12-26T16:32:18.904Z,96856.97
2022-12-26T16:34:48.354Z,96853.66
2022-12-26T16:37:20.154Z,96825.19
2022-12-26T16:40:06.965Z,96822.13
2022-12-26T16:42:37.441Z,96829.69
2022-12-26T16:45:19.724Z,96790.44
2022-12-26T16:47:48.444Z,96793.22
2022-12-26T16:50:18.737Z,96765.53
2022-12-26T16:52:47.159Z,96789.63
2022-12-26T16:55:27.135Z,96818.69
2022-12-26T16:57:59.527Z,96751.31
2022-12-26T17:00:27.606Z,96811.09
2022-12-26T17:03:00.183Z,96794.84
2022-12-26T17:05:30.992Z,96791.41
2022-12-26T17:08:01.998Z,96798.44
2022-12-26T17:10:32.413Z,96770.06
2022-12-26T17:13:04.188Z,96769.25
2022-12-26T17:15:35.481Z,96774.50
2022-12-26T17:18:37.810Z,96750.50
2022-12-26T17:21:27.081Z,96742.78
2022-12-26T17:24:34.919Z,96774.50
2022-12-26T17:27:16.170Z,96773.50
2022-12-26T17:29:55.288Z,96764.28
2022-12-26T17:32:44.466Z,96776.97
2022-12-26T17:35:15.910Z,96781.38
2022-12-26T17:37:44.572Z,96785.50
2022-12-26T17:40:23.504Z,96766.78
2022-12-26T17:42:53.322Z,96760.72
2022-12-26T17:45:25.157Z,96738.66
2022-12-26T17:47:54.087Z,96764.00
2022-12-26T17:50:22.752Z,96760.00
2022-12-26T17:52:51.520Z,96782.19
2022-12-26T17:55:24.984Z,96764.97
2022-12-26T17:57:53.530Z,96790.75
2022-12-26T18:00:26.061Z,96791.41
2022-12-26T18:02:54.039Z,96824.75
2022-12-26T18:05:22.698Z,96775.47
2022-12-26T18:07:52.872Z,96767.59
2022-12-26T18:10:22.508Z,96781.38
2022-12-26T18:12:51.442Z,96783.84
2022-12-26T18:15:20.245Z,96770.91
2022-12-26T18:17:51.566Z,96752.13
2022-12-26T18:20:21.514Z,96773.66
2022-12-26T18:22:49.332Z,96756.41
2022-12-26T18:25:18.906Z,96762.63
2022-12-26T18:27:47.688Z,96786.31
2022-12-26T18:30:17.918Z,96762.34
2022-12-26T18:32:46.820Z,96769.25
2022-12-26T18:35:16.736Z,96774.50
2022-12-26T18:37:47.905Z,96777.94
2022-12-26T18:40:28.821Z,96780.56
2022-12-26T18:42:56.915Z,96767.88
2022-12-26T18:45:25.074Z,96765.94
2022-12-26T18:47:53.131Z,96742.94
2022-12-26T18:50:22.504Z,96761.81
2022-12-26T18:52:53.778Z,96748.84
2022-12-26T18:55:22.376Z,96773.66
2022-12-26T18:57:50.258Z,96781.06
2022-12-26T19:00:19.478Z,96764.16
2022-12-26T19:02:48.490Z,96762.63
2022-12-26T19:05:19.001Z,96769.41
2022-12-26T19:07:50.188Z,96784.66
2022-12-26T19:10:20.847Z,96813.06
2022-12-26T19:12:48.663Z,96800.94
2022-12-26T19:15:16.678Z,96786.31
2022-12-26T19:17:44.674Z,96792.38
2022-12-26T19:20:19.163Z,96774.50
2022-12-26T19:22:50.034Z,96758.22
2022-12-26T19:25:19.106Z,96742.56
2022-12-26T19:27:48.171Z,96768.69
2022-12-26T19:30:17.676Z,96743.09
2022-12-26T19:32:45.973Z,96741.97
2022-12-26T19:35:15.192Z,96737.84
2022-12-26T19:37:43.614Z,96745.56
2022-12-26T19:40:18.449Z,96721.59
2022-12-26T19:42:49.103Z,96736.34
2022-12-26T19:45:17.382Z,96738.66
2022-12-26T19:47:45.904Z,96732.75
2022-12-26T19:50:14.153Z,96721.59
2022-12-26T19:52:42.016Z,96719.94
2022-12-26T19:55:13.425Z,96701.91
2022-12-26T19:57:41.260Z,96709.78
2022-12-26T20:00:11.118Z,96679.09
2022-12-26T20:02:39.010Z,96672.34
2022-12-26T20:05:07.912Z,96646.72
2022-12-26T20:07:36.059Z,96666.28
2022-12-26T20:10:04.485Z,96646.72
2022-12-26T20:12:33.633Z,96634.91
2022-12-26T20:15:01.447Z,96619.50
2022-12-26T20:17:29.212Z,96641.78
2022-12-26T20:19:56.993Z,96600.78
2022-12-26T20:22:24.735Z,96576.69
2022-12-26T20:24:53.085Z,96572.59
2022-12-26T20:27:20.903Z,96550.44
2022-12-26T20:29:50.058Z,96539.44
2022-12-26T20:32:17.892Z,96521.56
2022-12-26T20:34:45.656Z,96532.84
2022-12-26T20:37:13.502Z,96516.63
2022-12-26T20:39:41.241Z,96501.22
2022-12-26T20:42:09.059Z,96486.66
2022-12-26T20:44:41.359Z,96495.16
2022-12-26T20:47:10.770Z,96470.59
2022-12-26T20:49:38.539Z,96450.25
2022-12-26T20:52:06.358Z,96432.25
2022-12-26T20:54:34.102Z,96421.38
2022-12-26T20:57:02.922Z,96421.06
2022-12-26T20:59:30.790Z,96394.03
2022-12-26T21:01:58.668Z,96399.25
2022-12-26T21:04:27.874Z,96345.38
2022-12-26T21:06:56.891Z,96374.53
2022-12-26T21:09:25.039Z,96333.59
2022-12-26T21:11:52.903Z,96328.66
2022-12-26T21:14:22.359Z,96309.66
2022-12-26T21:16:52.820Z,96318.38
2022-12-26T21:19:22.877Z,96287.72
2022-12-26T21:21:54.532Z,96259.88
2022-12-26T21:24:24.918Z,96261.38
2022-12-26T21:26:53.106Z,96257.25
2022-12-26T21:29:23.629Z,96240.25
2022-12-26T21:31:53.079Z,96248.25
2022-12-26T21:34:23.076Z,96253.00
2022-12-26T21:37:10.781Z,96253.97
2022-12-26T21:39:39.751Z,96231.72
2022-12-26T21:42:08.993Z,96220.75
2022-12-26T21:44:37.850Z,96217.31
2022-12-26T21:47:08.050Z,96224.88
2022-12-26T21:49:36.013Z,96230.91
2022-12-26T21:52:06.026Z,96213.06
2022-12-26T21:54:52.057Z,96202.75
2022-12-26T21:57:19.959Z,96192.75
2022-12-26T21:59:57.150Z,96187.38
2022-12-26T22:02:47.028Z,96195.22
2022-12-26T22:05:15.722Z,96199.94
2022-12-26T22:07:45.196Z,96218.97
2022-12-26T22:10:34.877Z,96214.72
2022-12-26T22:13:02.752Z,96196.84
2022-12-26T22:15:48.264Z,96202.63
2022-12-26T22:18:17.336Z,96186.69
2022-12-26T22:20:46.119Z,96206.22
2022-12-26T22:23:15.624Z,96200.13
2022-12-26T22:25:43.414Z,96188.34
2022-12-26T22:28:11.402Z,96187.53
2022-12-26T22:30:39.129Z,96191.78
2022-12-26T22:33:06.931Z,96175.72
2022-12-26T22:35:35.008Z,96180.66
2022-12-26T22:38:03.221Z,96184.25
2022-12-26T22:40:32.369Z,96186.84
2022-12-26T22:43:00.300Z,96179.84
2022-12-26T22:45:28.204Z,96176.56
2022-12-26T22:47:56.106Z,96174.91
2022-12-26T22:50:24.136Z,96176.56
2022-12-26T22:52:52.320Z,96189.16
2022-12-26T22:55:20.190Z,96174.09
2022-12-26T22:57:52.558Z,96185.88
2022-12-26T23:00:21.035Z,96183.25
2022-12-26T23:02:48.955Z,96180.66
2022-12-26T23:05:17.401Z,96165.59
2022-12-26T23:07:45.796Z,96159.53
2022-12-26T23:10:19.161Z,96181.63
2022-12-26T23:12:51.259Z,96181.94
2022-12-26T23:15:21.708Z,96180.97
2022-12-26T23:18:27.615Z,96168.88
2022-12-26T23:21:13.639Z,96164.47
2022-12-26T23:23:42.050Z,96184.25
2022-12-26T23:26:11.015Z,96180.66
2022-12-26T23:34:29.434Z,96168.03
2022-12-26T23:36:57.224Z,96162.31
2022-12-26T23:39:24.939Z,96152.16
2022-12-26T23:41:52.731Z,96166.56
2022-12-26T23:44:22.013Z,96172.16
2022-12-26T23:46:49.939Z,96170.50
2022-12-26T23:49:18.017Z,96191.09
2022-12-26T23:51:45.861Z,96177.38
2022-12-26T23:54:13.603Z,96176.56
2022-12-26T23:56:41.283Z,96168.88
2022-12-26T23:59:09.194Z,96134.25
